sensor_id;sensor_type;location;lat;lon;timestamp;P1;durP1;ratioP1;P2;durP2;ratioP2
36923;SDS011;22841;50.252;18.688;2023-05-19T00:01:46;18.65;;;9.80;;
36923;SDS011;22841;50.252;18.688;2023-05-19T00:04:13;14.82;;;9.10;;
36923;SDS011;22841;50.252;18.688;2023-05-19T00:06:39;18.27;;;9.30;;
36923;SDS011;22841;50.252;18.688;2023-05-19T00:09:07;19.45;;;8.98;;
36923;SDS011;22841;50.252;18.688;2023-05-19T00:11:34;16.60;;;9.98;;
36923;SDS011;22841;50.252;18.688;2023-05-19T00:14:03;23.73;;;9.80;;
36923;SDS011;22841;50.252;18.688;2023-05-19T00:16:31;18.77;;;11.27;;
36923;SDS011;22841;50.252;18.688;2023-05-19T00:18:57;18.27;;;11.20;;
36923;SDS011;22841;50.252;18.688;2023-05-19T00:21:25;20.83;;;12.52;;
36923;SDS011;22841;50.252;18.688;2023-05-19T00:23:51;20.95;;;12.20;;
36923;SDS011;22841;50.252;18.688;2023-05-19T00:26:17;20.63;;;11.30;;
36923;SDS011;22841;50.252;18.688;2023-05-19T00:28:43;21.38;;;12.20;;
36923;SDS011;22841;50.252;18.688;2023-05-19T00:31:09;20.15;;;11.70;;
36923;SDS011;22841;50.252;18.688;2023-05-19T00:33:35;18.50;;;10.45;;
36923;SDS011;22841;50.252;18.688;2023-05-19T00:36:02;20.33;;;10.43;;
36923;SDS011;22841;50.252;18.688;2023-05-19T00:38:29;18.52;;;10.40;;
36923;SDS011;22841;50.252;18.688;2023-05-19T00:40:56;17.35;;;10.30;;
36923;SDS011;22841;50.252;18.688;2023-05-19T00:43:22;17.17;;;9.77;;
36923;SDS011;22841;50.252;18.688;2023-05-19T00:45:48;18.85;;;10.57;;
36923;SDS011;22841;50.252;18.688;2023-05-19T00:48:15;19.60;;;10.98;;
36923;SDS011;22841;50.252;18.688;2023-05-19T00:50:41;16.10;;;10.82;;
36923;SDS011;22841;50.252;18.688;2023-05-19T00:53:07;23.20;;;11.15;;
36923;SDS011;22841;50.252;18.688;2023-05-19T00:55:34;23.77;;;11.82;;
36923;SDS011;22841;50.252;18.688;2023-05-19T00:58:03;25.88;;;11.80;;
36923;SDS011;22841;50.252;18.688;2023-05-19T01:00:30;29.33;;;12.48;;
36923;SDS011;22841;50.252;18.688;2023-05-19T01:02:56;19.88;;;12.65;;
36923;SDS011;22841;50.252;18.688;2023-05-19T01:05:23;25.77;;;12.23;;
36923;SDS011;22841;50.252;18.688;2023-05-19T01:07:49;21.67;;;10.60;;
36923;SDS011;22841;50.252;18.688;2023-05-19T01:10:18;16.30;;;10.02;;
36923;SDS011;22841;50.252;18.688;2023-05-19T01:12:45;19.25;;;9.73;;
36923;SDS011;22841;50.252;18.688;2023-05-19T01:15:12;18.65;;;9.23;;
36923;SDS011;22841;50.252;18.688;2023-05-19T01:17:46;14.75;;;9.50;;
36923;SDS011;22841;50.252;18.688;2023-05-19T01:20:20;14.40;;;8.63;;
36923;SDS011;22841;50.252;18.688;2023-05-19T01:23:04;19.27;;;9.40;;
36923;SDS011;22841;50.252;18.688;2023-05-19T01:26:13;15.35;;;8.50;;
36923;SDS011;22841;50.252;18.688;2023-05-19T01:31:35;17.35;;;10.52;;
36923;SDS011;22841;50.252;18.688;2023-05-19T01:34:03;21.33;;;11.30;;
36923;SDS011;22841;50.252;18.688;2023-05-19T01:36:31;20.15;;;11.73;;
36923;SDS011;22841;50.252;18.688;2023-05-19T01:38:58;21.75;;;11.50;;
36923;SDS011;22841;50.252;18.688;2023-05-19T01:41:26;20.83;;;11.45;;
36923;SDS011;22841;50.252;18.688;2023-05-19T01:43:54;17.65;;;10.63;;
36923;SDS011;22841;50.252;18.688;2023-05-19T01:46:22;21.35;;;10.02;;
36923;SDS011;22841;50.252;18.688;2023-05-19T01:48:49;20.05;;;9.98;;
36923;SDS011;22841;50.252;18.688;2023-05-19T01:51:16;21.20;;;11.23;;
36923;SDS011;22841;50.252;18.688;2023-05-19T01:53:42;17.88;;;11.15;;
36923;SDS011;22841;50.252;18.688;2023-05-19T01:56:08;17.15;;;12.55;;
36923;SDS011;22841;50.252;18.688;2023-05-19T01:58:45;19.58;;;10.88;;
36923;SDS011;22841;50.252;18.688;2023-05-19T02:12:05;15.25;;;8.23;;
36923;SDS011;22841;50.252;18.688;2023-05-19T02:15:10;12.73;;;7.38;;
36923;SDS011;22841;50.252;18.688;2023-05-19T02:17:39;10.55;;;6.57;;
36923;SDS011;22841;50.252;18.688;2023-05-19T02:20:07;13.13;;;6.93;;
36923;SDS011;22841;50.252;18.688;2023-05-19T02:22:34;13.88;;;7.53;;
36923;SDS011;22841;50.252;18.688;2023-05-19T02:25:00;8.60;;;5.95;;
36923;SDS011;22841;50.252;18.688;2023-05-19T02:27:26;15.68;;;6.22;;
36923;SDS011;22841;50.252;18.688;2023-05-19T02:29:52;14.18;;;6.28;;
36923;SDS011;22841;50.252;18.688;2023-05-19T02:32:19;11.02;;;6.45;;
36923;SDS011;22841;50.252;18.688;2023-05-19T02:34:45;12.60;;;6.15;;
36923;SDS011;22841;50.252;18.688;2023-05-19T02:37:12;12.48;;;6.45;;
36923;SDS011;22841;50.252;18.688;2023-05-19T02:39:39;16.05;;;6.72;;
36923;SDS011;22841;50.252;18.688;2023-05-19T02:42:09;14.23;;;6.00;;
36923;SDS011;22841;50.252;18.688;2023-05-19T02:44:36;10.02;;;6.00;;
36923;SDS011;22841;50.252;18.688;2023-05-19T02:47:02;14.25;;;6.38;;
36923;SDS011;22841;50.252;18.688;2023-05-19T02:49:28;14.32;;;6.38;;
36923;SDS011;22841;50.252;18.688;2023-05-19T02:52:01;15.52;;;6.88;;
36923;SDS011;22841;50.252;18.688;2023-05-19T02:54:30;11.82;;;6.15;;
36923;SDS011;22841;50.252;18.688;2023-05-19T02:56:58;11.57;;;6.65;;
36923;SDS011;22841;50.252;18.688;2023-05-19T02:59:25;12.55;;;6.30;;
36923;SDS011;22841;50.252;18.688;2023-05-19T03:01:55;12.57;;;6.35;;
36923;SDS011;22841;50.252;18.688;2023-05-19T03:04:23;13.18;;;6.68;;
36923;SDS011;22841;50.252;18.688;2023-05-19T03:06:49;13.85;;;6.22;;
36923;SDS011;22841;50.252;18.688;2023-05-19T03:09:15;14.75;;;6.55;;
36923;SDS011;22841;50.252;18.688;2023-05-19T03:11:41;13.13;;;6.20;;
36923;SDS011;22841;50.252;18.688;2023-05-19T03:14:07;14.07;;;7.00;;
36923;SDS011;22841;50.252;18.688;2023-05-19T03:16:38;12.60;;;7.13;;
36923;SDS011;22841;50.252;18.688;2023-05-19T03:19:05;17.50;;;7.82;;
36923;SDS011;22841;50.252;18.688;2023-05-19T03:21:32;18.08;;;7.40;;
36923;SDS011;22841;50.252;18.688;2023-05-19T03:23:59;20.45;;;8.20;;
36923;SDS011;22841;50.252;18.688;2023-05-19T03:26:25;16.95;;;8.90;;
36923;SDS011;22841;50.252;18.688;2023-05-19T03:28:53;15.75;;;7.63;;
36923;SDS011;22841;50.252;18.688;2023-05-19T03:31:20;18.98;;;7.60;;
36923;SDS011;22841;50.252;18.688;2023-05-19T03:33:46;19.13;;;9.43;;
36923;SDS011;22841;50.252;18.688;2023-05-19T03:36:12;21.13;;;9.50;;
36923;SDS011;22841;50.252;18.688;2023-05-19T03:38:38;19.92;;;10.13;;
36923;SDS011;22841;50.252;18.688;2023-05-19T03:41:04;17.95;;;9.95;;
36923;SDS011;22841;50.252;18.688;2023-05-19T03:43:30;25.05;;;11.60;;
36923;SDS011;22841;50.252;18.688;2023-05-19T03:45:56;21.58;;;11.95;;
36923;SDS011;22841;50.252;18.688;2023-05-19T03:48:22;22.00;;;12.48;;
36923;SDS011;22841;50.252;18.688;2023-05-19T03:50:48;24.27;;;12.38;;
36923;SDS011;22841;50.252;18.688;2023-05-19T03:53:14;22.23;;;12.45;;
36923;SDS011;22841;50.252;18.688;2023-05-19T03:55:40;29.20;;;13.80;;
36923;SDS011;22841;50.252;18.688;2023-05-19T03:58:07;24.75;;;12.35;;
36923;SDS011;22841;50.252;18.688;2023-05-19T04:00:33;16.98;;;11.70;;
36923;SDS011;22841;50.252;18.688;2023-05-19T04:02:59;24.75;;;12.38;;
36923;SDS011;22841;50.252;18.688;2023-05-19T04:05:25;33.63;;;12.02;;
36923;SDS011;22841;50.252;18.688;2023-05-19T04:07:51;22.90;;;10.80;;
36923;SDS011;22841;50.252;18.688;2023-05-19T04:10:17;20.60;;;11.15;;
36923;SDS011;22841;50.252;18.688;2023-05-19T04:12:44;19.13;;;9.82;;
36923;SDS011;22841;50.252;18.688;2023-05-19T04:15:10;24.23;;;11.13;;
36923;SDS011;22841;50.252;18.688;2023-05-19T04:17:37;20.63;;;9.93;;
36923;SDS011;22841;50.252;18.688;2023-05-19T04:20:03;19.83;;;9.75;;
36923;SDS011;22841;50.252;18.688;2023-05-19T04:22:32;19.23;;;8.98;;
36923;SDS011;22841;50.252;18.688;2023-05-19T04:24:58;19.38;;;8.60;;
36923;SDS011;22841;50.252;18.688;2023-05-19T04:27:24;19.10;;;9.18;;
36923;SDS011;22841;50.252;18.688;2023-05-19T04:29:52;15.30;;;9.38;;
36923;SDS011;22841;50.252;18.688;2023-05-19T04:32:19;17.90;;;10.07;;
36923;SDS011;22841;50.252;18.688;2023-05-19T04:34:45;15.45;;;9.15;;
36923;SDS011;22841;50.252;18.688;2023-05-19T04:37:11;18.38;;;9.68;;
36923;SDS011;22841;50.252;18.688;2023-05-19T04:39:39;20.98;;;10.45;;
36923;SDS011;22841;50.252;18.688;2023-05-19T04:42:08;18.27;;;10.30;;
36923;SDS011;22841;50.252;18.688;2023-05-19T04:44:36;17.20;;;10.00;;
36923;SDS011;22841;50.252;18.688;2023-05-19T04:47:07;20.83;;;10.70;;
36923;SDS011;22841;50.252;18.688;2023-05-19T04:49:34;24.63;;;11.82;;
36923;SDS011;22841;50.252;18.688;2023-05-19T04:52:06;16.40;;;10.35;;
36923;SDS011;22841;50.252;18.688;2023-05-19T04:54:36;20.98;;;11.85;;
36923;SDS011;22841;50.252;18.688;2023-05-19T04:57:03;24.88;;;11.25;;
36923;SDS011;22841;50.252;18.688;2023-05-19T04:59:30;20.27;;;12.30;;
36923;SDS011;22841;50.252;18.688;2023-05-19T05:01:56;23.27;;;12.07;;
36923;SDS011;22841;50.252;18.688;2023-05-19T05:04:22;19.73;;;11.80;;
36923;SDS011;22841;50.252;18.688;2023-05-19T05:06:48;23.65;;;12.50;;
36923;SDS011;22841;50.252;18.688;2023-05-19T05:09:15;22.10;;;12.32;;
36923;SDS011;22841;50.252;18.688;2023-05-19T05:11:42;22.92;;;11.95;;
36923;SDS011;22841;50.252;18.688;2023-05-19T05:14:08;25.77;;;13.27;;
36923;SDS011;22841;50.252;18.688;2023-05-19T05:16:35;26.95;;;14.35;;
36923;SDS011;22841;50.252;18.688;2023-05-19T05:19:01;23.70;;;13.52;;
36923;SDS011;22841;50.252;18.688;2023-05-19T05:21:28;25.25;;;14.15;;
36923;SDS011;22841;50.252;18.688;2023-05-19T05:23:54;25.25;;;12.95;;
36923;SDS011;22841;50.252;18.688;2023-05-19T05:26:21;27.05;;;13.75;;
36923;SDS011;22841;50.252;18.688;2023-05-19T05:28:48;26.35;;;13.75;;
36923;SDS011;22841;50.252;18.688;2023-05-19T05:31:14;24.00;;;13.63;;
36923;SDS011;22841;50.252;18.688;2023-05-19T05:33:41;26.77;;;14.20;;
36923;SDS011;22841;50.252;18.688;2023-05-19T05:36:08;22.67;;;14.10;;
36923;SDS011;22841;50.252;18.688;2023-05-19T05:38:34;25.42;;;14.13;;
36923;SDS011;22841;50.252;18.688;2023-05-19T05:41:00;24.95;;;14.48;;
36923;SDS011;22841;50.252;18.688;2023-05-19T05:43:28;25.42;;;14.88;;
36923;SDS011;22841;50.252;18.688;2023-05-19T05:45:55;27.33;;;14.77;;
36923;SDS011;22841;50.252;18.688;2023-05-19T05:48:21;28.50;;;16.27;;
36923;SDS011;22841;50.252;18.688;2023-05-19T05:50:48;23.48;;;15.45;;
36923;SDS011;22841;50.252;18.688;2023-05-19T05:53:18;27.45;;;16.25;;
36923;SDS011;22841;50.252;18.688;2023-05-19T05:55:46;29.25;;;16.98;;
36923;SDS011;22841;50.252;18.688;2023-05-19T05:58:12;23.27;;;15.13;;
36923;SDS011;22841;50.252;18.688;2023-05-19T06:00:40;27.52;;;16.45;;
36923;SDS011;22841;50.252;18.688;2023-05-19T06:03:12;28.52;;;16.25;;
36923;SDS011;22841;50.252;18.688;2023-05-19T06:05:39;27.77;;;16.70;;
36923;SDS011;22841;50.252;18.688;2023-05-19T06:08:05;29.40;;;16.55;;
36923;SDS011;22841;50.252;18.688;2023-05-19T06:10:31;22.55;;;15.00;;
36923;SDS011;22841;50.252;18.688;2023-05-19T06:12:57;28.42;;;15.55;;
36923;SDS011;22841;50.252;18.688;2023-05-19T06:15:23;27.92;;;15.45;;
36923;SDS011;22841;50.252;18.688;2023-05-19T06:17:49;27.42;;;16.08;;
36923;SDS011;22841;50.252;18.688;2023-05-19T06:20:16;21.63;;;14.23;;
36923;SDS011;22841;50.252;18.688;2023-05-19T06:22:42;24.27;;;14.52;;
36923;SDS011;22841;50.252;18.688;2023-05-19T06:25:08;25.13;;;14.07;;
36923;SDS011;22841;50.252;18.688;2023-05-19T06:27:34;23.45;;;14.73;;
36923;SDS011;22841;50.252;18.688;2023-05-19T06:30:00;26.10;;;14.93;;
36923;SDS011;22841;50.252;18.688;2023-05-19T06:32:27;26.63;;;14.70;;
36923;SDS011;22841;50.252;18.688;2023-05-19T06:34:54;31.60;;;17.02;;
36923;SDS011;22841;50.252;18.688;2023-05-19T06:37:20;25.27;;;15.45;;
36923;SDS011;22841;50.252;18.688;2023-05-19T06:39:51;27.83;;;15.73;;
36923;SDS011;22841;50.252;18.688;2023-05-19T06:42:18;28.30;;;17.35;;
36923;SDS011;22841;50.252;18.688;2023-05-19T06:44:47;21.80;;;15.48;;
36923;SDS011;22841;50.252;18.688;2023-05-19T06:47:14;29.63;;;16.75;;
36923;SDS011;22841;50.252;18.688;2023-05-19T06:49:41;25.27;;;16.17;;
36923;SDS011;22841;50.252;18.688;2023-05-19T06:52:07;25.85;;;15.30;;
36923;SDS011;22841;50.252;18.688;2023-05-19T06:54:33;28.77;;;15.23;;
36923;SDS011;22841;50.252;18.688;2023-05-19T06:56:59;26.40;;;15.48;;
36923;SDS011;22841;50.252;18.688;2023-05-19T06:59:25;28.85;;;15.88;;
36923;SDS011;22841;50.252;18.688;2023-05-19T07:01:51;24.23;;;14.60;;
36923;SDS011;22841;50.252;18.688;2023-05-19T07:04:18;26.88;;;15.52;;
36923;SDS011;22841;50.252;18.688;2023-05-19T07:06:44;32.22;;;16.17;;
36923;SDS011;22841;50.252;18.688;2023-05-19T07:09:10;26.17;;;14.60;;
36923;SDS011;22841;50.252;18.688;2023-05-19T07:11:37;30.20;;;15.60;;
36923;SDS011;22841;50.252;18.688;2023-05-19T07:14:03;21.13;;;13.80;;
36923;SDS011;22841;50.252;18.688;2023-05-19T07:16:29;26.60;;;14.38;;
36923;SDS011;22841;50.252;18.688;2023-05-19T07:18:55;25.08;;;14.45;;
36923;SDS011;22841;50.252;18.688;2023-05-19T07:21:21;25.27;;;15.30;;
36923;SDS011;22841;50.252;18.688;2023-05-19T07:23:47;24.80;;;14.90;;
36923;SDS011;22841;50.252;18.688;2023-05-19T07:26:13;29.65;;;15.93;;
36923;SDS011;22841;50.252;18.688;2023-05-19T07:28:39;23.27;;;14.48;;
36923;SDS011;22841;50.252;18.688;2023-05-19T07:31:07;27.42;;;14.93;;
36923;SDS011;22841;50.252;18.688;2023-05-19T07:33:33;27.02;;;14.15;;
36923;SDS011;22841;50.252;18.688;2023-05-19T07:35:59;26.52;;;14.65;;
36923;SDS011;22841;50.252;18.688;2023-05-19T07:38:26;27.15;;;14.52;;
36923;SDS011;22841;50.252;18.688;2023-05-19T07:40:53;26.00;;;14.10;;
36923;SDS011;22841;50.252;18.688;2023-05-19T07:43:19;24.33;;;15.18;;
36923;SDS011;22841;50.252;18.688;2023-05-19T07:45:45;24.70;;;15.10;;
36923;SDS011;22841;50.252;18.688;2023-05-19T07:48:11;24.88;;;14.73;;
36923;SDS011;22841;50.252;18.688;2023-05-19T07:50:38;24.13;;;14.57;;
36923;SDS011;22841;50.252;18.688;2023-05-19T07:53:04;24.17;;;13.52;;
36923;SDS011;22841;50.252;18.688;2023-05-19T07:55:30;21.00;;;13.73;;
36923;SDS011;22841;50.252;18.688;2023-05-19T07:57:56;18.50;;;12.93;;
36923;SDS011;22841;50.252;18.688;2023-05-19T08:00:22;24.25;;;14.23;;
36923;SDS011;22841;50.252;18.688;2023-05-19T08:02:48;29.13;;;13.23;;
36923;SDS011;22841;50.252;18.688;2023-05-19T08:05:14;31.33;;;13.63;;
36923;SDS011;22841;50.252;18.688;2023-05-19T08:07:41;27.17;;;13.75;;
36923;SDS011;22841;50.252;18.688;2023-05-19T08:10:07;25.00;;;14.00;;
36923;SDS011;22841;50.252;18.688;2023-05-19T08:12:33;20.52;;;14.07;;
36923;SDS011;22841;50.252;18.688;2023-05-19T08:14:59;23.23;;;14.15;;
36923;SDS011;22841;50.252;18.688;2023-05-19T08:17:25;27.98;;;15.18;;
36923;SDS011;22841;50.252;18.688;2023-05-19T08:19:51;24.73;;;14.85;;
36923;SDS011;22841;50.252;18.688;2023-05-19T08:22:17;23.25;;;13.88;;
36923;SDS011;22841;50.252;18.688;2023-05-19T08:24:43;19.05;;;13.00;;
36923;SDS011;22841;50.252;18.688;2023-05-19T08:27:10;28.50;;;14.20;;
36923;SDS011;22841;50.252;18.688;2023-05-19T08:29:36;22.55;;;13.82;;
36923;SDS011;22841;50.252;18.688;2023-05-19T08:32:02;23.25;;;13.85;;
36923;SDS011;22841;50.252;18.688;2023-05-19T08:34:29;23.92;;;14.15;;
36923;SDS011;22841;50.252;18.688;2023-05-19T08:36:56;23.25;;;14.43;;
36923;SDS011;22841;50.252;18.688;2023-05-19T08:39:22;23.50;;;13.95;;
36923;SDS011;22841;50.252;18.688;2023-05-19T08:41:52;27.63;;;15.48;;
36923;SDS011;22841;50.252;18.688;2023-05-19T08:44:18;27.63;;;13.38;;
36923;SDS011;22841;50.252;18.688;2023-05-19T08:46:48;24.38;;;13.10;;
36923;SDS011;22841;50.252;18.688;2023-05-19T08:49:18;22.35;;;12.40;;
36923;SDS011;22841;50.252;18.688;2023-05-19T08:51:51;21.38;;;11.98;;
36923;SDS011;22841;50.252;18.688;2023-05-19T08:54:27;26.23;;;12.70;;
36923;SDS011;22841;50.252;18.688;2023-05-19T08:56:58;21.98;;;12.77;;
36923;SDS011;22841;50.252;18.688;2023-05-19T08:59:25;22.70;;;12.25;;
36923;SDS011;22841;50.252;18.688;2023-05-19T09:01:51;22.55;;;13.25;;
36923;SDS011;22841;50.252;18.688;2023-05-19T09:04:19;22.75;;;13.40;;
36923;SDS011;22841;50.252;18.688;2023-05-19T09:06:45;20.80;;;12.20;;
36923;SDS011;22841;50.252;18.688;2023-05-19T09:09:12;20.35;;;13.38;;
36923;SDS011;22841;50.252;18.688;2023-05-19T09:11:39;26.77;;;12.63;;
36923;SDS011;22841;50.252;18.688;2023-05-19T09:14:09;19.30;;;12.25;;
36923;SDS011;22841;50.252;18.688;2023-05-19T09:16:35;20.70;;;12.80;;
36923;SDS011;22841;50.252;18.688;2023-05-19T09:19:02;20.15;;;12.35;;
36923;SDS011;22841;50.252;18.688;2023-05-19T09:21:29;21.55;;;13.20;;
36923;SDS011;22841;50.252;18.688;2023-05-19T09:23:56;19.92;;;13.07;;
36923;SDS011;22841;50.252;18.688;2023-05-19T09:26:23;21.92;;;11.50;;
36923;SDS011;22841;50.252;18.688;2023-05-19T09:29:00;21.35;;;13.02;;
36923;SDS011;22841;50.252;18.688;2023-05-19T09:31:29;21.30;;;13.23;;
36923;SDS011;22841;50.252;18.688;2023-05-19T09:33:56;20.92;;;12.65;;
36923;SDS011;22841;50.252;18.688;2023-05-19T09:36:22;17.52;;;11.75;;
36923;SDS011;22841;50.252;18.688;2023-05-19T09:38:48;20.80;;;12.35;;
36923;SDS011;22841;50.252;18.688;2023-05-19T09:41:16;20.02;;;11.80;;
36923;SDS011;22841;50.252;18.688;2023-05-19T09:43:42;23.77;;;13.07;;
36923;SDS011;22841;50.252;18.688;2023-05-19T09:46:09;20.63;;;11.68;;
36923;SDS011;22841;50.252;18.688;2023-05-19T09:48:38;16.88;;;11.15;;
36923;SDS011;22841;50.252;18.688;2023-05-19T09:51:04;19.73;;;12.30;;
36923;SDS011;22841;50.252;18.688;2023-05-19T09:53:34;16.80;;;10.30;;
36923;SDS011;22841;50.252;18.688;2023-05-19T09:56:01;18.23;;;11.40;;
36923;SDS011;22841;50.252;18.688;2023-05-19T09:58:31;19.25;;;12.18;;
36923;SDS011;22841;50.252;18.688;2023-05-19T10:01:01;21.45;;;12.18;;
36923;SDS011;22841;50.252;18.688;2023-05-19T10:03:28;21.45;;;11.52;;
36923;SDS011;22841;50.252;18.688;2023-05-19T10:05:55;23.33;;;12.07;;
36923;SDS011;22841;50.252;18.688;2023-05-19T10:08:22;16.05;;;11.07;;
36923;SDS011;22841;50.252;18.688;2023-05-19T10:10:50;18.98;;;12.63;;
36923;SDS011;22841;50.252;18.688;2023-05-19T10:13:17;23.55;;;12.48;;
36923;SDS011;22841;50.252;18.688;2023-05-19T10:15:43;23.83;;;12.80;;
36923;SDS011;22841;50.252;18.688;2023-05-19T10:18:11;20.85;;;12.55;;
36923;SDS011;22841;50.252;18.688;2023-05-19T10:20:40;19.42;;;12.77;;
36923;SDS011;22841;50.252;18.688;2023-05-19T10:23:08;22.92;;;12.25;;
36923;SDS011;22841;50.252;18.688;2023-05-19T10:25:34;22.80;;;14.27;;
36923;SDS011;22841;50.252;18.688;2023-05-19T10:28:08;22.63;;;13.85;;
36923;SDS011;22841;50.252;18.688;2023-05-19T10:30:39;24.55;;;13.82;;
36923;SDS011;22841;50.252;18.688;2023-05-19T10:33:08;24.33;;;14.07;;
36923;SDS011;22841;50.252;18.688;2023-05-19T10:38:40;20.40;;;12.45;;
36923;SDS011;22841;50.252;18.688;2023-05-19T10:46:45;19.20;;;13.35;;
36923;SDS011;22841;50.252;18.688;2023-05-19T10:49:18;23.95;;;12.82;;
36923;SDS011;22841;50.252;18.688;2023-05-19T10:51:47;21.08;;;13.60;;
36923;SDS011;22841;50.252;18.688;2023-05-19T10:54:16;17.58;;;12.38;;
36923;SDS011;22841;50.252;18.688;2023-05-19T10:56:43;20.60;;;13.35;;
36923;SDS011;22841;50.252;18.688;2023-05-19T10:59:31;21.52;;;13.02;;
36923;SDS011;22841;50.252;18.688;2023-05-19T11:02:05;23.98;;;14.65;;
36923;SDS011;22841;50.252;18.688;2023-05-19T11:04:44;25.08;;;15.45;;
36923;SDS011;22841;50.252;18.688;2023-05-19T11:07:21;22.95;;;13.88;;
36923;SDS011;22841;50.252;18.688;2023-05-19T11:09:49;23.55;;;15.25;;
36923;SDS011;22841;50.252;18.688;2023-05-19T11:12:19;30.30;;;15.52;;
36923;SDS011;22841;50.252;18.688;2023-05-19T11:14:56;29.67;;;18.30;;
36923;SDS011;22841;50.252;18.688;2023-05-19T11:17:23;36.30;;;20.27;;
36923;SDS011;22841;50.252;18.688;2023-05-19T11:19:51;29.90;;;17.17;;
36923;SDS011;22841;50.252;18.688;2023-05-19T11:22:21;26.92;;;17.33;;
36923;SDS011;22841;50.252;18.688;2023-05-19T11:24:54;29.15;;;17.33;;
36923;SDS011;22841;50.252;18.688;2023-05-19T11:27:31;31.33;;;18.10;;
36923;SDS011;22841;50.252;18.688;2023-05-19T11:32:34;31.33;;;17.25;;
36923;SDS011;22841;50.252;18.688;2023-05-19T11:35:04;32.88;;;18.58;;
36923;SDS011;22841;50.252;18.688;2023-05-19T11:37:31;28.08;;;18.55;;
36923;SDS011;22841;50.252;18.688;2023-05-19T11:40:00;29.50;;;17.25;;
36923;SDS011;22841;50.252;18.688;2023-05-19T11:42:27;25.48;;;16.38;;
36923;SDS011;22841;50.252;18.688;2023-05-19T11:44:56;26.48;;;16.45;;
36923;SDS011;22841;50.252;18.688;2023-05-19T11:47:22;31.23;;;18.33;;
36923;SDS011;22841;50.252;18.688;2023-05-19T11:49:49;28.23;;;18.55;;
36923;SDS011;22841;50.252;18.688;2023-05-19T11:52:22;38.05;;;18.48;;
36923;SDS011;22841;50.252;18.688;2023-05-19T11:54:49;29.67;;;18.80;;
36923;SDS011;22841;50.252;18.688;2023-05-19T11:57:16;28.55;;;19.52;;
36923;SDS011;22841;50.252;18.688;2023-05-19T11:59:42;33.78;;;20.05;;
36923;SDS011;22841;50.252;18.688;2023-05-19T12:04:45;38.03;;;21.65;;
36923;SDS011;22841;50.252;18.688;2023-05-19T12:07:12;31.27;;;20.35;;
36923;SDS011;22841;50.252;18.688;2023-05-19T12:09:42;32.58;;;21.15;;
36923;SDS011;22841;50.252;18.688;2023-05-19T12:12:12;34.28;;;20.90;;
36923;SDS011;22841;50.252;18.688;2023-05-19T12:14:43;30.88;;;20.77;;
36923;SDS011;22841;50.252;18.688;2023-05-19T12:17:14;30.85;;;20.92;;
36923;SDS011;22841;50.252;18.688;2023-05-19T12:19:42;35.35;;;21.02;;
36923;SDS011;22841;50.252;18.688;2023-05-19T12:22:09;35.53;;;21.15;;
36923;SDS011;22841;50.252;18.688;2023-05-19T12:24:36;33.60;;;20.95;;
36923;SDS011;22841;50.252;18.688;2023-05-19T12:27:03;29.13;;;19.95;;
36923;SDS011;22841;50.252;18.688;2023-05-19T12:29:53;26.33;;;17.80;;
36923;SDS011;22841;50.252;18.688;2023-05-19T12:32:22;27.73;;;18.05;;
36923;SDS011;22841;50.252;18.688;2023-05-19T12:34:52;27.33;;;17.65;;
36923;SDS011;22841;50.252;18.688;2023-05-19T12:37:25;30.35;;;17.88;;
36923;SDS011;22841;50.252;18.688;2023-05-19T12:39:52;31.42;;;19.77;;
36923;SDS011;22841;50.252;18.688;2023-05-19T12:42:19;31.08;;;18.33;;
36923;SDS011;22841;50.252;18.688;2023-05-19T12:44:46;31.88;;;20.42;;
36923;SDS011;22841;50.252;18.688;2023-05-19T12:47:16;36.25;;;20.73;;
36923;SDS011;22841;50.252;18.688;2023-05-19T12:52:31;27.73;;;17.90;;
36923;SDS011;22841;50.252;18.688;2023-05-19T12:55:18;27.75;;;18.48;;
36923;SDS011;22841;50.252;18.688;2023-05-19T12:57:48;27.00;;;16.92;;
36923;SDS011;22841;50.252;18.688;2023-05-19T13:00:20;31.50;;;17.23;;
36923;SDS011;22841;50.252;18.688;2023-05-19T13:05:22;27.45;;;17.45;;
36923;SDS011;22841;50.252;18.688;2023-05-19T13:07:52;27.25;;;17.67;;
36923;SDS011;22841;50.252;18.688;2023-05-19T13:10:23;28.63;;;17.77;;
36923;SDS011;22841;50.252;18.688;2023-05-19T13:12:53;26.70;;;17.50;;
36923;SDS011;22841;50.252;18.688;2023-05-19T13:15:24;28.13;;;16.88;;
36923;SDS011;22841;50.252;18.688;2023-05-19T13:18:01;27.42;;;16.83;;
36923;SDS011;22841;50.252;18.688;2023-05-19T13:20:29;24.48;;;18.23;;
36923;SDS011;22841;50.252;18.688;2023-05-19T13:22:55;24.27;;;16.80;;
36923;SDS011;22841;50.252;18.688;2023-05-19T13:25:21;31.23;;;18.17;;
36923;SDS011;22841;50.252;18.688;2023-05-19T13:27:47;23.25;;;15.75;;
36923;SDS011;22841;50.252;18.688;2023-05-19T13:30:14;23.48;;;16.25;;
36923;SDS011;22841;50.252;18.688;2023-05-19T13:32:40;22.23;;;15.10;;
36923;SDS011;22841;50.252;18.688;2023-05-19T13:35:07;21.15;;;15.02;;
36923;SDS011;22841;50.252;18.688;2023-05-19T13:37:34;23.20;;;15.75;;
36923;SDS011;22841;50.252;18.688;2023-05-19T13:40:01;19.73;;;15.55;;
36923;SDS011;22841;50.252;18.688;2023-05-19T13:42:28;22.38;;;15.68;;
36923;SDS011;22841;50.252;18.688;2023-05-19T13:44:54;23.85;;;16.05;;
36923;SDS011;22841;50.252;18.688;2023-05-19T13:47:21;27.52;;;17.88;;
36923;SDS011;22841;50.252;18.688;2023-05-19T13:49:48;30.15;;;16.77;;
36923;SDS011;22841;50.252;18.688;2023-05-19T13:52:14;29.65;;;17.83;;
36923;SDS011;22841;50.252;18.688;2023-05-19T13:54:40;21.17;;;15.32;;
36923;SDS011;22841;50.252;18.688;2023-05-19T13:57:06;24.70;;;15.70;;
36923;SDS011;22841;50.252;18.688;2023-05-19T13:59:32;25.38;;;15.95;;
36923;SDS011;22841;50.252;18.688;2023-05-19T14:01:59;23.08;;;16.60;;
36923;SDS011;22841;50.252;18.688;2023-05-19T14:04:27;21.88;;;15.52;;
36923;SDS011;22841;50.252;18.688;2023-05-19T14:06:53;18.67;;;14.18;;
36923;SDS011;22841;50.252;18.688;2023-05-19T14:09:20;26.77;;;17.30;;
36923;SDS011;22841;50.252;18.688;2023-05-19T14:11:46;28.40;;;17.33;;
36923;SDS011;22841;50.252;18.688;2023-05-19T14:14:12;25.70;;;18.52;;
36923;SDS011;22841;50.252;18.688;2023-05-19T14:16:39;32.67;;;17.55;;
36923;SDS011;22841;50.252;18.688;2023-05-19T14:19:05;32.50;;;16.55;;
36923;SDS011;22841;50.252;18.688;2023-05-19T14:21:31;20.92;;;15.70;;
36923;SDS011;22841;50.252;18.688;2023-05-19T14:23:57;29.75;;;18.73;;
36923;SDS011;22841;50.252;18.688;2023-05-19T14:26:24;32.08;;;22.85;;
36923;SDS011;22841;50.252;18.688;2023-05-19T14:28:50;30.38;;;22.58;;
36923;SDS011;22841;50.252;18.688;2023-05-19T14:31:16;31.00;;;19.58;;
36923;SDS011;22841;50.252;18.688;2023-05-19T14:33:42;23.73;;;16.55;;
36923;SDS011;22841;50.252;18.688;2023-05-19T14:36:09;29.83;;;17.95;;
36923;SDS011;22841;50.252;18.688;2023-05-19T14:38:35;27.40;;;20.15;;
36923;SDS011;22841;50.252;18.688;2023-05-19T14:41:01;33.42;;;19.95;;
36923;SDS011;22841;50.252;18.688;2023-05-19T14:43:27;30.13;;;19.98;;
36923;SDS011;22841;50.252;18.688;2023-05-19T14:45:53;34.53;;;20.42;;
36923;SDS011;22841;50.252;18.688;2023-05-19T14:48:20;35.20;;;22.17;;